Aviation Digital Data Service (ADDS)

Output produced by METARs form (0921 UTC 17 November 2018)
found at http://www.aviationweather.gov/metar/data/
 
VDSR 170900Z 17006KT 140V210 9999 SCT015 32/24 Q1007
TAF VDSR 170500Z 1706/1724 24005KT 9999 SCT017 
     TEMPO 1707/1712 SCT015 FEW017CB
       
VDSV 170900Z 13005KT 100V170 9999 SCT015 32/25 Q1008
TAF VDSV 170500Z 1706/1724 12006KT 9999 SCT017 
     TEMPO 1707/1712 SCT015 FEW017CB SCT040